Time;durP1;ratioP1;P1;durP2;ratioP2;P2;SDS_P1;SDS_P2;PMS_P1;PMS_P2;Temp;Humidity;BMP_temperature;BMP_pressure;BME280_temperature;BME280_humidity;BME280_pressure;Samples;Min_cycle;Max_cycle;Signal;HPM_P1;HPM_P2
2023/04/19 00:02:05;;;;;;;15.02;9.10;;;;;;;11.84;69.11;98864.06;7385820;19;19970;-76
2023/04/19 00:04:32;;;;;;;15.93;9.18;;;;;;;11.89;68.98;98860.19;7385178;19;19931;-76
2023/04/19 00:06:59;;;;;;;13.88;8.75;;;;;;;11.89;69.45;98862.84;7389863;19;19926;-76
2023/04/19 00:09:26;;;;;;;15.65;9.02;;;;;;;11.89;69.52;98863.66;7385854;19;20376;-76
2023/04/19 00:11:53;;;;;;;13.07;8.75;;;;;;;11.88;69.27;98862.00;7389344;19;19918;-76
2023/04/19 00:14:19;;;;;;;13.52;9.32;;;;;;;11.87;69.28;98865.63;7386837;19;19915;-76
2023/04/19 00:16:46;;;;;;;13.77;8.93;;;;;;;11.85;69.18;98857.81;7384207;19;19943;-76
2023/04/19 00:19:13;;;;;;;13.55;8.73;;;;;;;11.84;69.11;98864.06;7385297;19;19922;-76
2023/04/19 00:21:40;;;;;;;13.43;9.45;;;;;;;11.84;69.51;98861.41;7384983;19;20348;-76
2023/04/19 00:24:07;;;;;;;12.27;8.00;;;;;;;11.84;69.43;98850.81;7389266;19;19942;-76
2023/04/19 00:26:34;;;;;;;16.27;9.93;;;;;;;11.80;69.02;98849.47;7386188;19;19918;-75
2023/04/19 00:29:00;;;;;;;14.82;9.77;;;;;;;11.78;69.27;98846.13;7388790;19;20378;-76
2023/04/19 00:31:27;;;;;;;14.00;8.15;;;;;;;11.75;69.50;98845.63;7379912;19;19922;-75
2023/04/19 00:33:55;;;;;;;14.93;8.82;;;;;;;11.72;69.62;98852.06;7385140;19;19935;-76
2023/04/19 00:36:26;;;;;;;17.52;9.88;;;;;;;11.69;69.12;98847.06;7378038;19;19977;-76
2023/04/19 00:38:52;;;;;;;16.33;9.98;;;;;;;11.63;69.06;98850.28;7386857;19;19923;-76
2023/04/19 00:41:20;;;;;;;14.88;9.02;;;;;;;11.67;69.63;98845.53;7387503;19;19939;-76
2023/04/19 00:43:46;;;;;;;16.27;9.68;;;;;;;11.70;69.83;98842.59;7383145;19;19955;-75
2023/04/19 00:46:14;;;;;;;15.85;8.82;;;;;;;11.71;69.84;98839.75;7386378;19;19918;-76
2023/04/19 00:48:41;;;;;;;17.08;9.63;;;;;;;11.64;69.78;98836.91;7383821;19;19918;-75
2023/04/19 00:51:10;;;;;;;15.57;8.75;;;;;;;11.62;69.68;98833.56;7379774;19;19919;-75
2023/04/19 00:53:37;;;;;;;18.02;9.93;;;;;;;11.62;69.90;98838.88;7384763;19;19922;-76
2023/04/19 00:56:04;;;;;;;17.75;9.82;;;;;;;11.62;69.78;98838.88;7389187;19;20289;-76
2023/04/19 00:58:31;;;;;;;13.07;8.93;;;;;;;11.59;70.18;98831.22;7382293;19;19959;-76
2023/04/19 01:00:59;;;;;;;15.70;8.57;;;;;;;11.60;70.03;98832.06;7384802;19;19918;-76
2023/04/19 01:03:28;;;;;;;15.93;11.45;;;;;;;11.58;69.73;98836.66;7382449;19;20247;-76
2023/04/19 01:05:55;;;;;;;13.35;9.15;;;;;;;11.59;70.25;98830.41;7386569;19;20632;-75
2023/04/19 01:08:23;;;;;;;15.90;9.07;;;;;;;11.57;69.70;98827.88;7385580;19;19923;-75
2023/04/19 01:10:52;;;;;;;12.25;8.80;;;;;;;11.58;70.25;98821.59;7385534;19;19914;-76
2023/04/19 01:13:19;;;;;;;15.35;9.43;;;;;;;11.56;70.08;98820.94;7387904;19;19956;-76
2023/04/19 01:15:47;;;;;;;18.48;9.50;;;;;;;11.54;70.02;98822.06;7385134;19;20003;-76
2023/04/19 01:18:13;;;;;;;14.98;9.43;;;;;;;11.53;70.12;98823.03;7384733;19;20602;-75
2023/04/19 01:20:41;;;;;;;16.50;9.73;;;;;;;11.53;70.32;98818.59;7372625;19;19982;-75
2023/04/19 01:23:10;;;;;;;15.13;10.35;;;;;;;11.49;70.33;98824.31;7386121;19;19918;-75
2023/04/19 01:25:37;;;;;;;15.13;9.20;;;;;;;11.48;70.27;98809.41;7384238;19;19925;-76
2023/04/19 01:28:05;;;;;;;17.45;10.80;;;;;;;11.40;70.04;98808.34;7386620;19;20307;-76
2023/04/19 01:30:31;;;;;;;13.77;9.82;;;;;;;11.39;70.10;98811.13;7381458;19;19923;-75
2023/04/19 01:32:58;;;;;;;16.75;10.70;;;;;;;11.40;70.52;98811.00;7384116;19;20030;-76
2023/04/19 01:35:25;;;;;;;16.20;10.20;;;;;;;11.40;70.74;98805.72;7382904;19;19964;-76
2023/04/19 01:37:54;;;;;;;17.35;11.38;;;;;;;11.38;70.52;98807.66;7384217;19;20549;-76
2023/04/19 01:40:24;;;;;;;15.77;10.68;;;;;;;11.36;70.50;98799.03;7384754;19;20489;-76
2023/04/19 01:42:52;;;;;;;17.23;10.02;;;;;;;11.40;70.83;98799.56;7385991;19;19914;-76
2023/04/19 01:45:19;;;;;;;15.00;9.73;;;;;;;11.40;70.58;98795.09;7384333;19;19922;-76
2023/04/19 01:47:49;;;;;;;;;;;;;;;11.43;70.58;98793.97;7382196;19;19927;-76
2023/04/19 01:50:16;;;;;;;15.48;9.65;;;;;;;11.42;70.40;98790.47;7380744;19;19933;-75
2023/04/19 01:52:42;;;;;;;15.43;10.95;;;;;;;11.40;70.48;98792.47;7381991;19;19943;-76
2023/04/19 01:55:09;;;;;;;13.60;9.27;;;;;;;11.40;70.61;98796.91;7384329;19;20017;-76
2023/04/19 01:57:36;;;;;;;17.10;10.27;;;;;;;11.36;70.21;98791.09;7381507;19;20777;-76
2023/04/19 02:00:03;;;;;;;15.93;9.88;;;;;;;11.33;70.23;98793.22;7383906;19;19922;-75
2023/04/19 02:02:39;;;;;;;18.30;12.10;;;;;;;11.29;70.37;98786.53;7383386;19;20361;-76
2023/04/19 02:05:07;;;;;;;19.85;10.63;;;;;;;11.24;70.03;98784.31;7381453;19;19922;-76
2023/04/19 02:07:34;;;;;;;15.80;9.98;;;;;;;11.29;70.78;98783.88;7380401;19;19939;-76
2023/04/19 02:10:01;;;;;;;16.15;10.55;;;;;;;11.28;70.41;98779.59;7385093;19;20248;-77
2023/04/19 02:12:29;;;;;;;17.40;10.38;;;;;;;11.25;70.40;98786.00;7379363;19;20339;-77
2023/04/19 02:14:57;;;;;;;18.83;10.77;;;;;;;11.18;70.08;98771.69;7385041;19;19937;-76
2023/04/19 02:17:29;;;;;;;15.95;9.95;;;;;;;11.22;70.04;98775.72;7381615;19;19986;-76
2023/04/19 02:19:58;;;;;;;15.90;10.23;;;;;;;11.19;70.51;98776.84;7380195;19;19922;-76
2023/04/19 02:22:25;;;;;;;17.02;10.88;;;;;;;11.21;70.40;98766.91;7380846;19;20363;-76
2023/04/19 02:24:53;;;;;;;15.95;9.73;;;;;;;11.21;70.57;98771.38;7384407;19;19919;-76
2023/04/19 02:27:26;;;;;;;15.88;12.27;;;;;;;11.15;70.33;98764.88;7383170;19;20284;-76
2023/04/19 02:29:53;;;;;;;15.80;9.50;;;;;;;11.13;70.55;98766.84;7379822;19;19918;-76
2023/04/19 02:32:20;;;;;;;16.90;11.02;;;;;;;11.14;70.28;98763.22;7387202;19;20391;-77
2023/04/19 02:34:46;;;;;;;15.65;10.68;;;;;;;11.11;70.51;98754.72;7386786;19;19922;-76
2023/04/19 02:37:13;;;;;;;16.17;10.18;;;;;;;11.14;70.47;98760.56;7388265;19;19914;-76
2023/04/19 02:39:41;;;;;;;16.05;10.02;;;;;;;11.16;70.71;98757.75;7385573;19;19922;-76
2023/04/19 02:42:08;;;;;;;16.58;9.88;;;;;;;11.21;70.93;98753.69;7388841;19;19946;-77
2023/04/19 02:44:34;;;;;;;16.40;10.20;;;;;;;11.21;70.78;98752.84;7388466;19;19922;-77
2023/04/19 02:47:01;;;;;;;17.17;10.10;;;;;;;11.23;71.09;98758.00;7391395;19;19923;-77
2023/04/19 02:49:31;;;;;;;15.40;9.95;;;;;;;11.24;71.04;98752.53;7389443;19;19919;-76
2023/04/19 02:51:59;;;;;;;16.52;10.43;;;;;;;11.24;71.20;98755.19;7384573;19;19948;-76
2023/04/19 02:54:26;;;;;;;15.25;9.55;;;;;;;11.24;71.08;98754.38;7386303;19;20339;-76
2023/04/19 02:56:53;;;;;;;17.15;10.73;;;;;;;11.24;71.17;98751.72;7384010;19;19923;-76
2023/04/19 02:59:20;;;;;;;16.10;9.88;;;;;;;11.19;71.07;98753.03;7387399;19;20348;-76
2023/04/19 03:01:47;;;;;;;14.43;9.23;;;;;;;11.17;71.14;98749.69;7384985;19;19974;-76
2023/04/19 03:04:15;;;;;;;16.02;10.90;;;;;;;11.19;71.18;98749.53;7389643;19;19922;-76
2023/04/19 03:06:43;;;;;;;16.35;10.20;;;;;;;11.16;70.85;98744.53;7385666;19;20351;-76
2023/04/19 03:09:10;;;;;;;16.75;10.73;;;;;;;11.19;71.09;98744.25;7388252;19;19918;-77
2023/04/19 03:11:37;;;;;;;20.05;12.60;;;;;;;11.21;71.19;98748.38;7380574;19;20352;-77
2023/04/19 03:14:04;;;;;;;15.80;9.60;;;;;;;11.17;70.99;98746.19;7386426;19;19918;-77
2023/04/19 03:16:32;;;;;;;18.48;10.70;;;;;;;11.15;71.01;98748.16;7384955;19;19923;-77
2023/04/19 03:18:59;;;;;;;19.17;11.77;;;;;;;11.15;71.30;98741.03;7387137;19;20376;-76
2023/04/19 03:21:31;;;;;;;16.30;10.68;;;;;;;11.16;71.08;98749.81;7378957;19;19943;-75
2023/04/19 03:23:58;;;;;;;18.25;10.93;;;;;;;11.14;70.96;98746.50;7390248;19;19922;-76
2023/04/19 03:26:25;;;;;;;15.77;10.23;;;;;;;11.07;70.71;98745.44;7386218;19;20390;-75
2023/04/19 03:28:55;;;;;;;16.75;10.90;;;;;;;11.07;70.93;98740.97;7383628;19;20350;-75
2023/04/19 03:31:21;;;;;;;18.02;11.00;;;;;;;11.04;71.09;98733.31;7386238;19;19942;-76
2023/04/19 03:33:50;;;;;;;16.75;10.20;;;;;;;11.01;70.86;98735.44;7387146;19;19919;-75
2023/04/19 03:36:18;;;;;;;13.13;9.90;;;;;;;10.92;71.00;98737.16;7386240;19;19929;-75
2023/04/19 03:38:46;;;;;;;19.15;11.35;;;;;;;10.83;71.01;98740.72;7380289;19;19922;-75
2023/04/19 03:41:22;;;;;;;16.98;11.63;;;;;;;10.69;71.09;98737.59;7388492;19;19945;-75
2023/04/19 03:44:11;;;;;;;17.35;11.00;;;;;;;10.65;71.35;98740.66;7386862;19;19961;-77
2023/04/19 03:46:41;;;;;;;17.67;10.60;;;;;;;10.57;71.77;98733.47;7383923;19;19914;-75
2023/04/19 03:49:09;;;;;;;19.38;12.20;;;;;;;10.51;72.08;98731.41;7385659;19;19924;-75
2023/04/19 03:51:36;;;;;;;17.30;12.10;;;;;;;10.41;72.29;98734.09;7376937;19;19922;-75
2023/04/19 03:54:03;;;;;;;14.30;10.10;;;;;;;10.41;72.33;98733.25;7387454;19;19919;-75
2023/04/19 03:56:31;;;;;;;19.33;12.07;;;;;;;10.34;72.46;98733.00;7386353;19;19980;-75
2023/04/19 03:58:58;;;;;;;17.52;11.30;;;;;;;10.32;72.90;98727.00;7385768;19;19934;-75
2023/04/19 04:01:26;;;;;;;19.73;11.68;;;;;;;10.26;72.41;98733.69;7384794;19;19922;-77
2023/04/19 04:03:54;;;;;;;20.23;12.40;;;;;;;10.28;72.72;98729.13;7384725;19;19918;-77
2023/04/19 04:06:21;;;;;;;18.98;11.10;;;;;;;10.27;72.71;98724.81;7388006;19;19919;-77
2023/04/19 04:08:48;;;;;;;18.38;11.38;;;;;;;10.28;73.17;98736.22;7385926;19;19934;-77
2023/04/19 04:11:15;;;;;;;19.67;11.68;;;;;;;10.31;73.13;98735.94;7387012;19;20427;-75
2023/04/19 04:13:45;;;;;;;18.30;11.02;;;;;;;10.30;73.15;98731.63;7380635;19;19948;-77
2023/04/19 04:16:17;;;;;;;21.80;15.05;;;;;;;10.25;72.65;98733.84;7390146;19;20247;-75
2023/04/19 04:18:44;;;;;;;17.55;11.50;;;;;;;10.21;72.67;98735.09;7383490;19;19922;-78
2023/04/19 04:21:13;;;;;;;20.20;11.90;;;;;;;10.18;72.85;98733.59;7382613;19;20332;-75
2023/04/19 04:23:42;;;;;;;21.10;11.70;;;;;;;10.14;73.05;98736.66;7382577;19;19919;-77
2023/04/19 04:26:15;;;;;;;19.63;12.25;;;;;;;10.09;73.07;98740.56;7385109;19;19918;-77
2023/04/19 04:29:08;;;;;;;20.38;12.43;;;;;;;10.02;73.01;98738.66;7388978;19;20373;-78
2023/04/19 04:31:38;;;;;;;23.40;14.07;;;;;;;9.99;73.22;98736.28;7378282;19;20256;-77
2023/04/19 04:34:05;;;;;;;17.58;12.02;;;;;;;9.97;73.28;98739.06;7383913;19;20535;-78
2023/04/19 04:36:36;;;;;;;21.48;12.38;;;;;;;9.97;73.23;98744.34;7384417;19;19918;-75
2023/04/19 04:39:05;;;;;;;;;;;;;;;9.94;73.59;98741.16;7388509;19;20379;-76
2023/04/19 04:41:32;;;;;;;21.40;12.68;;;;;;;9.97;73.67;98748.81;7386706;19;20404;-77
2023/04/19 04:44:00;;;;;;;18.08;11.90;;;;;;;9.92;73.67;98738.66;7388376;19;19943;-76
2023/04/19 04:46:30;;;;;;;21.25;12.00;;;;;;;9.97;73.73;98744.34;7388392;19;19918;-76
2023/04/19 04:48:57;;;;;;;21.58;12.43;;;;;;;9.95;73.71;98748.13;7384227;19;19926;-77
2023/04/19 04:51:23;;;;;;;20.92;12.32;;;;;;;9.98;73.85;98746.03;7374128;19;20332;-77
2023/04/19 04:53:52;;;;;;;18.40;12.02;;;;;;;9.95;73.71;98750.75;7372482;19;19918;-76
2023/04/19 04:56:19;;;;;;;20.58;13.30;;;;;;;10.02;73.04;98750.03;7388547;19;19918;-77
2023/04/19 04:58:46;;;;;;;21.73;12.25;;;;;;;9.98;73.42;98753.97;7383863;19;19915;-75
2023/04/19 05:01:21;;;;;;;21.00;12.45;;;;;;;10.06;73.02;98747.97;7383219;19;19932;-77
2023/04/19 05:03:49;;;;;;;21.20;13.00;;;;;;;10.01;72.69;98743.09;7384141;19;19978;-77
2023/04/19 05:06:17;;;;;;;20.83;11.93;;;;;;;10.05;72.86;98752.41;7385289;19;19921;-77
2023/04/19 05:08:44;;;;;;;19.55;11.45;;;;;;;10.02;73.00;98750.03;7382781;19;19910;-77
2023/04/19 05:11:20;;;;;;;19.60;11.77;;;;;;;10.05;72.68;98749.75;7385290;19;20464;-77
2023/04/19 05:13:47;;;;;;;19.85;12.18;;;;;;;10.04;72.54;98760.50;7378568;19;19918;-77
2023/04/19 05:16:14;;;;;;;19.55;13.05;;;;;;;10.05;72.68;98755.03;7383813;19;20302;-75
2023/04/19 05:18:43;;;;;;;21.88;12.43;;;;;;;10.09;72.81;98753.78;7374630;19;19942;-77
2023/04/19 05:21:10;;;;;;;20.35;12.82;;;;;;;10.13;72.90;98750.84;7378810;19;19918;-77
2023/04/19 05:23:38;;;;;;;19.35;12.93;;;;;;;10.14;72.62;98755.16;7377807;19;19922;-77
2023/04/19 05:26:05;;;;;;;17.80;12.13;;;;;;;10.15;72.61;98751.56;7382281;19;19918;-77
2023/04/19 05:28:32;;;;;;;22.02;12.18;;;;;;;10.11;72.37;98754.50;7379082;19;19933;-77
2023/04/19 05:31:08;;;;;;;22.15;12.45;;;;;;;10.14;72.77;98755.16;7374700;19;19933;-77
2023/04/19 05:33:43;;;;;;;19.35;13.25;;;;;;;10.21;72.65;98758.91;7376665;19;19970;-77
2023/04/19 05:36:10;;;;;;;25.73;14.25;;;;;;;10.21;72.36;98757.09;7374734;19;19933;-77
2023/04/19 05:38:37;;;;;;;20.70;11.65;;;;;;;10.31;72.27;98767.66;7378332;19;19943;-77
2023/04/19 05:41:05;;;;;;;21.42;13.00;;;;;;;10.31;72.45;98759.75;7378379;19;19918;-77
2023/04/19 05:43:31;;;;;;;21.42;12.18;;;;;;;10.39;72.04;98754.56;7384533;19;19930;-77
2023/04/19 05:45:59;;;;;;;23.45;12.93;;;;;;;10.49;72.07;98757.16;7383674;19;19914;-77
2023/04/19 05:48:25;;;;;;;18.73;10.73;;;;;;;10.54;71.91;98752.28;7385539;19;19970;-77
2023/04/19 05:50:53;;;;;;;23.05;11.73;;;;;;;10.58;71.38;98753.63;7374619;19;19943;-76
2023/04/19 05:53:53;;;;;;;17.83;11.13;;;;;;;10.53;71.20;98754.09;7381963;19;19932;-77
2023/04/19 05:56:23;;;;;;;20.23;11.18;;;;;;;10.65;71.20;98751.25;7384174;19;19934;-77
2023/04/19 05:58:50;;;;;;;16.48;10.38;;;;;;;10.74;71.23;98753.00;7377693;19;19937;-77
2023/04/19 06:01:17;;;;;;;19.20;11.50;;;;;;;10.74;70.84;98751.22;7384962;19;19938;-77
2023/04/19 06:03:44;;;;;;;22.40;11.32;;;;;;;10.69;70.41;98752.59;7381431;19;19918;-77
2023/04/19 06:06:11;;;;;;;16.92;10.85;;;;;;;10.85;70.37;98754.59;7390036;19;20327;-77
2023/04/19 06:08:38;;;;;;;19.25;10.48;;;;;;;10.87;70.29;98750.00;7382557;19;19918;-77
2023/04/19 06:11:04;;;;;;;19.33;10.38;;;;;;;10.96;70.28;98751.78;7391665;19;19947;-77
2023/04/19 06:13:50;;;;;;;15.85;10.60;;;;;;;11.06;69.70;98744.59;7386883;19;20396;-77
2023/04/19 06:16:17;;;;;;;16.70;9.90;;;;;;;11.16;69.74;98755.13;7389803;19;19925;-77
2023/04/19 06:18:44;;;;;;;15.93;10.70;;;;;;;11.21;69.53;98747.56;7387571;19;19911;-77
2023/04/19 06:21:11;;;;;;;19.42;11.73;;;;;;;11.33;69.18;98750.81;7390319;19;19922;-77
2023/04/19 06:23:37;;;;;;;18.77;10.40;;;;;;;11.34;69.03;98750.66;7389033;19;19914;-77
2023/04/19 06:26:04;;;;;;;17.45;10.23;;;;;;;11.30;68.38;98748.50;7389836;19;19915;-77
2023/04/19 06:28:31;;;;;;;18.25;12.90;;;;;;;11.34;68.28;98761.25;7392489;19;20245;-77
2023/04/19 06:30:58;;;;;;;19.95;12.43;;;;;;;11.35;68.75;98755.00;7378292;19;20538;-77
2023/04/19 06:33:25;;;;;;;17.35;9.70;;;;;;;11.45;68.86;98757.53;7392378;19;19922;-77
2023/04/19 06:35:51;;;;;;;14.88;9.70;;;;;;;11.54;68.72;98754.00;7379839;19;19922;-77
2023/04/19 06:38:18;;;;;;;14.95;10.30;;;;;;;11.64;68.31;98751.28;7390759;19;19915;-77
2023/04/19 06:40:45;;;;;;;17.67;10.90;;;;;;;11.69;68.36;98756.09;7381025;19;19934;-77
2023/04/19 06:43:12;;;;;;;16.20;10.00;;;;;;;11.72;68.78;98756.63;7389941;19;19921;-77
2023/04/19 06:45:38;;;;;;;17.58;9.73;;;;;;;11.72;67.77;98755.81;7384762;19;19926;-77
2023/04/19 06:48:05;;;;;;;15.23;9.48;;;;;;;11.77;67.10;98753.50;7388112;19;19918;-77
2023/04/19 06:50:32;;;;;;;15.73;10.63;;;;;;;11.63;67.32;98760.19;7386769;19;19939;-77
2023/04/19 06:52:59;;;;;;;17.38;10.25;;;;;;;11.65;67.99;98753.75;7383716;19;21360;-77
2023/04/19 06:55:27;;;;;;;16.65;9.45;;;;;;;11.68;68.81;98754.44;7390882;19;19920;-77
2023/04/19 06:57:54;;;;;;;16.52;10.55;;;;;;;11.78;68.85;98757.84;7383916;19;19918;-77
2023/04/19 07:00:21;;;;;;;16.75;9.82;;;;;;;11.97;68.90;98755.00;7380223;19;19930;-77
2023/04/19 07:02:49;;;;;;;14.55;10.27;;;;;;;12.03;67.62;98751.75;7385269;19;19914;-77
2023/04/19 07:05:17;;;;;;;14.32;9.07;;;;;;;12.15;66.83;98747.00;7386877;19;19918;-77
2023/04/19 07:07:43;;;;;;;14.50;9.27;;;;;;;12.23;66.31;98743.56;7385396;19;19934;-77
2023/04/19 07:10:11;;;;;;;14.07;9.65;;;;;;;12.27;65.69;98740.47;7390017;19;19914;-77
2023/04/19 07:12:38;;;;;;;12.48;8.43;;;;;;;12.35;66.16;98744.97;7390436;19;19922;-77
2023/04/19 07:15:05;;;;;;;14.48;9.35;;;;;;;12.28;64.61;98744.75;7384960;19;20009;-77
2023/04/19 07:17:34;;;;;;;14.68;8.40;;;;;;;12.27;64.57;98742.28;7387310;19;19925;-77
2023/04/19 07:20:03;;;;;;;12.45;8.65;;;;;;;12.44;65.58;98735.22;7380186;19;19986;-77
2023/04/19 07:22:29;;;;;;;11.88;8.75;;;;;;;12.65;65.97;98740.13;7386448;19;19918;-75
2023/04/19 07:24:57;;;;;;;12.75;8.73;;;;;;;12.81;66.11;98731.41;7384737;19;19915;-77
2023/04/19 07:27:24;;;;;;;12.10;8.15;;;;;;;13.05;66.70;98731.44;7389125;19;20467;-77
2023/04/19 07:29:52;;;;;;;14.70;8.40;;;;;;;13.16;64.58;98735.63;7385696;19;20348;-77
2023/04/19 07:32:19;;;;;;;12.25;8.52;;;;;;;13.25;64.75;98731.19;7388169;19;19922;-76
2023/04/19 07:34:46;;;;;;;13.05;7.93;;;;;;;13.26;63.25;98727.50;7384343;19;19929;-77
2023/04/19 07:37:13;;;;;;;12.38;8.05;;;;;;;13.26;62.52;98730.16;7387114;19;20344;-77
2023/04/19 07:39:40;;;;;;;13.15;8.15;;;;;;;13.09;61.26;98730.16;7387815;19;19934;-77
2023/04/19 07:42:07;;;;;;;10.98;8.35;;;;;;;13.13;62.25;98730.63;7381674;19;20328;-76
2023/04/19 07:44:34;;;;;;;12.40;8.10;;;;;;;13.26;63.66;98735.47;7388456;19;19918;-76
2023/04/19 07:47:00;;;;;;;11.35;7.78;;;;;;;13.17;61.55;98719.53;7380198;19;19941;-76
2023/04/19 07:49:32;;;;;;;11.68;7.72;;;;;;;13.20;62.77;98725.53;7385681;19;20280;-77
2023/04/19 07:52:02;;;;;;;10.93;7.63;;;;;;;13.25;62.87;98718.72;7378624;19;20580;-77
2023/04/19 07:54:30;;;;;;;12.13;8.80;;;;;;;13.32;62.63;98718.91;7387110;19;20292;-76
2023/04/19 07:56:57;;;;;;;12.05;7.97;;;;;;;13.34;62.42;98716.91;7382342;19;19961;-76
2023/04/19 07:59:24;;;;;;;9.85;6.90;;;;;;;13.43;62.18;98723.06;7389050;19;20348;-75
2023/04/19 08:01:51;;;;;;;9.20;6.80;;;;;;;13.46;62.07;98715.59;7382411;19;19929;-77
2023/04/19 08:04:18;;;;;;;9.60;7.28;;;;;;;13.75;63.25;98720.41;7385117;19;20593;-77
2023/04/19 08:06:46;;;;;;;9.93;6.57;;;;;;;13.92;61.22;98729.19;7377394;19;19934;-76
2023/04/19 08:09:13;;;;;;;9.43;5.95;;;;;;;14.20;60.21;98716.34;7388235;19;19926;-77
2023/04/19 08:11:41;;;;;;;9.82;6.90;;;;;;;14.13;59.94;98725.19;7386601;19;19918;-77
2023/04/19 08:14:08;;;;;;;11.30;7.40;;;;;;;14.24;59.48;98716.81;7381867;19;20017;-76
2023/04/19 08:16:55;;;;;;;10.13;7.20;;;;;;;14.25;58.22;98718.50;7385130;19;20332;-77
2023/04/19 08:19:42;;;;;;;10.77;7.50;;;;;;;14.35;58.83;98708.50;7385472;19;19915;-77
2023/04/19 08:22:09;;;;;;;8.30;6.68;;;;;;;14.48;58.93;98705.25;7378696;19;20441;-77
2023/04/19 08:24:36;;;;;;;10.57;8.52;;;;;;;14.59;58.29;98701.44;7388830;19;20271;-77
2023/04/19 08:27:02;;;;;;;10.38;6.78;;;;;;;14.54;58.14;98706.47;7380634;19;19930;-77
2023/04/19 08:29:29;;;;;;;9.07;6.03;;;;;;;14.55;57.48;98710.78;7381029;19;19918;-77
2023/04/19 08:31:56;;;;;;;9.88;7.13;;;;;;;14.62;57.93;98704.59;7376668;19;19918;-76
2023/04/19 08:34:23;;;;;;;10.27;6.30;;;;;;;14.66;57.15;98702.41;7387450;19;19919;-76
2023/04/19 08:36:50;;;;;;;9.88;6.78;;;;;;;14.65;57.76;98704.22;7385348;19;19918;-77
2023/04/19 08:39:30;;;;;;;10.45;7.43;;;;;;;14.66;56.49;98705.06;7386792;19;19914;-77
2023/04/19 08:42:04;;;;;;;;;;;;;;;14.45;56.08;98701.09;7382937;19;19918;-75
2023/04/19 08:44:49;;;;;;;10.75;6.53;;;;;;;14.45;57.49;98694.97;7380920;19;19978;-75
2023/04/19 08:47:36;;;;;;;8.10;6.43;;;;;;;14.37;56.13;98689.66;7382960;19;19964;-75
2023/04/19 08:50:24;;;;;;;9.45;7.00;;;;;;;14.42;58.22;98696.13;7379365;19;19918;-75
2023/04/19 08:53:01;;;;;;;9.32;7.15;;;;;;;14.45;58.82;98689.63;7383791;19;19945;-75
2023/04/19 08:55:48;;;;;;;11.10;7.35;;;;;;;14.38;58.27;98692.19;7383251;19;19953;-75
2023/04/19 08:58:35;;;;;;;11.50;7.22;;;;;;;14.47;58.44;98690.31;7384395;19;19925;-75
2023/04/19 09:01:22;;;;;;;11.82;6.95;;;;;;;14.21;58.08;98687.91;7384538;19;19930;-75
2023/04/19 09:04:04;;;;;;;10.05;7.70;;;;;;;13.99;59.24;98686.81;7378093;19;19962;-76
2023/04/19 09:06:51;;;;;;;10.52;7.10;;;;;;;13.82;60.81;98691.31;7382747;19;19918;-76
2023/04/19 09:09:20;;;;;;;12.02;8.38;;;;;;;13.60;61.86;98691.00;7386200;19;20367;-76
2023/04/19 09:11:50;;;;;;;12.45;7.97;;;;;;;13.57;61.93;98690.53;7378406;19;19918;-76
2023/04/19 09:14:19;;;;;;;13.95;7.72;;;;;;;13.61;62.26;98690.03;7385490;19;19914;-76
2023/04/19 09:16:46;;;;;;;12.18;8.25;;;;;;;13.93;61.45;98685.66;7383423;19;20022;-76
2023/04/19 09:19:15;;;;;;;12.00;7.75;;;;;;;14.01;59.91;98687.47;7380980;19;19918;-75
2023/04/19 09:21:52;;;;;;;12.20;8.27;;;;;;;14.10;60.38;98674.97;7379140;19;19918;-75
2023/04/19 09:24:36;;;;;;;11.57;9.10;;;;;;;14.33;59.56;98673.22;7385009;19;20264;-76
2023/04/19 09:27:36;;;;;;;11.40;7.40;;;;;;;14.16;59.01;98666.28;7384368;19;19914;-76
2023/04/19 09:30:03;;;;;;;10.95;7.68;;;;;;;14.42;58.29;98668.69;7379975;19;19926;-75
2023/04/19 09:32:45;;;;;;;11.10;7.90;;;;;;;14.64;57.84;98657.31;7378177;19;19918;-76
2023/04/19 09:35:13;;;;;;;14.20;8.55;;;;;;;15.00;57.57;98659.41;7375002;19;20279;-76
2023/04/19 09:37:40;;;;;;;9.90;6.50;;;;;;;15.30;55.44;98657.72;7377620;19;19922;-76
2023/04/19 09:40:23;;;;;;;12.10;8.38;;;;;;;15.45;54.73;98655.06;7377362;19;19914;-75
2023/04/19 09:42:50;;;;;;;9.80;8.07;;;;;;;15.75;54.38;98660.50;7380481;19;20595;-75
2023/04/19 09:45:20;;;;;;;8.75;6.57;;;;;;;16.02;54.27;98646.53;7382431;19;19933;-75
2023/04/19 09:48:09;;;;;;;;;;;;;;;16.10;52.09;98642.13;7380653;19;19918;-76
2023/04/19 09:50:49;;;;;;;10.43;6.57;;;;;;;16.35;51.26;98639.97;7380078;19;19992;-75
2023/04/19 09:53:27;;;;;;;8.00;6.35;;;;;;;16.51;52.41;98634.44;7383566;19;19922;-76
2023/04/19 09:55:54;;;;;;;9.52;6.72;;;;;;;16.56;51.39;98632.03;7379077;19;19918;-75
2023/04/19 09:58:28;;;;;;;9.32;6.10;;;;;;;16.59;51.48;98622.81;7382866;19;20435;-76
2023/04/19 10:01:12;;;;;;;9.88;6.22;;;;;;;16.39;51.75;98627.91;7377666;19;19926;-76
2023/04/19 10:03:47;;;;;;;8.43;5.88;;;;;;;15.86;51.48;98625.38;7385071;19;19919;-76
2023/04/19 10:06:18;;;;;;;19.05;7.38;;;;;;;15.76;53.51;98630.16;7375034;19;19931;-75
2023/04/19 10:08:49;;;;;;;8.93;6.40;;;;;;;15.62;54.11;98637.09;7377524;19;19943;-75
2023/04/19 10:11:18;;;;;;;8.20;6.45;;;;;;;15.56;54.63;98635.13;7374673;19;19939;-75
2023/04/19 10:13:46;;;;;;;9.73;6.65;;;;;;;15.56;56.11;98632.47;7382616;19;19943;-75
2023/04/19 10:16:13;;;;;;;9.57;6.60;;;;;;;15.74;54.76;98626.81;7377623;19;20400;-74
2023/04/19 10:18:48;;;;;;;10.10;6.10;;;;;;;15.80;53.93;98626.94;7382320;19;19919;-75
2023/04/19 10:21:16;;;;;;;8.55;5.88;;;;;;;15.63;52.45;98625.41;7376710;19;19930;-78
2023/04/19 10:23:43;;;;;;;8.80;6.30;;;;;;;15.43;53.93;98624.25;7380913;19;19918;-76
2023/04/19 10:26:10;;;;;;;10.18;6.68;;;;;;;15.50;54.51;98620.69;7374771;19;19914;-76
2023/04/19 10:28:37;;;;;;;8.73;6.90;;;;;;;15.09;53.41;98620.22;7377987;19;19950;-76
2023/04/19 10:31:04;;;;;;;10.18;7.22;;;;;;;15.06;54.34;98615.25;7377623;19;19919;-75
2023/04/19 10:33:34;;;;;;;9.15;7.05;;;;;;;15.32;54.33;98621.03;7382347;19;19986;-74
2023/04/19 10:36:02;;;;;;;7.63;6.28;;;;;;;15.65;56.17;98611.91;7376846;19;19927;-75
2023/04/19 10:38:44;;;;;;;9.73;6.97;;;;;;;15.79;54.42;98609.25;7383643;19;19926;-75
2023/04/19 10:41:13;;;;;;;8.30;6.57;;;;;;;15.88;53.60;98611.88;7374262;19;19919;-76
2023/04/19 10:44:07;;;;;;;9.82;6.82;;;;;;;15.96;53.31;98603.75;7376780;19;19922;-75
2023/04/19 10:46:34;;;;;;;8.32;5.97;;;;;;;15.81;52.75;98606.41;7381140;19;19922;-75
2023/04/19 10:49:03;;;;;;;9.63;6.80;;;;;;;15.46;53.07;98605.25;7378104;19;19919;-75
2023/04/19 10:51:35;;;;;;;8.13;6.72;;;;;;;15.53;55.49;98603.50;7377466;19;20483;-75
2023/04/19 10:54:08;;;;;;;10.68;6.63;;;;;;;15.27;53.77;98599.44;7382947;19;19923;-75
2023/04/19 10:56:35;;;;;;;10.07;6.28;;;;;;;15.00;54.92;98594.66;7388726;19;19926;-75
2023/04/19 10:59:04;;;;;;;9.73;7.90;;;;;;;15.17;56.02;98598.03;7385266;19;20281;-76
2023/04/19 11:01:41;;;;;;;9.82;7.28;;;;;;;14.90;55.74;98592.22;7381402;19;19946;-75
2023/04/19 11:04:17;;;;;;;10.00;6.57;;;;;;;14.92;56.83;98588.38;7378931;19;19925;-75
2023/04/19 11:06:50;;;;;;;10.63;7.00;;;;;;;14.64;55.96;98589.88;7390664;19;19967;-76
2023/04/19 11:09:37;;;;;;;7.32;5.65;;;;;;;14.45;57.64;98580.50;7356488;19;19926;-75
2023/04/19 11:12:09;;;;;;;9.25;7.15;;;;;;;14.37;59.09;98580.53;7348420;19;19913;-76
2023/04/19 11:14:39;;;;;;;9.60;6.45;;;;;;;14.13;59.56;98579.66;7388192;19;20382;-78
2023/04/19 11:17:24;;;;;;;10.02;7.20;;;;;;;14.07;60.85;98585.69;7383540;19;19947;-75
2023/04/19 11:20:07;;;;;;;11.45;7.38;;;;;;;13.81;62.08;98578.78;7387422;19;19951;-76
2023/04/19 11:22:44;;;;;;;10.93;8.23;;;;;;;13.62;63.35;98571.22;7390692;19;19915;-76
2023/04/19 11:25:17;;;;;;;17.10;8.68;;;;;;;13.46;63.74;98573.91;7383962;19;19919;-77
2023/04/19 11:27:46;;;;;;;12.98;8.20;;;;;;;13.46;64.14;98576.56;7389475;19;19923;-77
2023/04/19 11:30:15;;;;;;;12.55;8.10;;;;;;;13.43;65.24;98560.94;7386037;19;19926;-78
2023/04/19 11:32:47;;;;;;;14.25;9.88;;;;;;;13.36;64.74;98582.06;7393007;19;19947;-78
2023/04/19 11:35:16;;;;;;;16.40;9.02;;;;;;;13.21;66.05;98578.41;7384897;19;20004;-77
2023/04/19 11:37:42;;;;;;;15.02;10.63;;;;;;;12.79;67.72;98574.06;7392161;19;19956;-77